KGNV 240453Z AUTO 22006KT 10SM CLR 22/19 A2996 RMK AO2 SLP143 T02170194 403060217